createdAt,value
2022-08-24T00:02:06.743Z,14.05
2022-08-24T00:04:33.900Z,11.60
2022-08-24T00:07:02.221Z,13.02
2022-08-24T00:09:30.280Z,12.98
2022-08-24T00:11:57.083Z,12.63
2022-08-24T00:14:24.113Z,10.13
2022-08-24T00:16:50.768Z,9.60
2022-08-24T00:19:17.580Z,12.50
2022-08-24T00:21:44.087Z,14.27
2022-08-24T00:24:11.120Z,10.65
2022-08-24T00:26:38.692Z,12.02
2022-08-24T00:29:07.573Z,15.35
2022-08-24T00:31:34.587Z,13.35
2022-08-24T00:34:01.272Z,12.55
2022-08-24T00:36:28.342Z,15.63
2022-08-24T00:38:54.865Z,12.57
2022-08-24T00:41:22.477Z,12.48
2022-08-24T00:43:58.631Z,14.40
2022-08-24T00:46:34.027Z,14.30
2022-08-24T00:49:23.984Z,14.77
2022-08-24T00:52:04.664Z,16.98
2022-08-24T00:54:36.600Z,12.65
2022-08-24T00:57:07.339Z,15.88
2022-08-24T00:59:43.127Z,14.88
2022-08-24T01:02:17.729Z,15.17
2022-08-24T01:04:52.516Z,13.45
2022-08-24T01:07:20.869Z,14.80
2022-08-24T01:09:47.426Z,11.10
2022-08-24T01:12:14.059Z,13.85
2022-08-24T01:14:40.654Z,14.57
2022-08-24T01:17:25.860Z,11.85
2022-08-24T01:19:57.126Z,13.10
2022-08-24T01:22:34.594Z,14.95
2022-08-24T01:25:01.488Z,12.95
2022-08-24T01:27:28.398Z,12.60
2022-08-24T01:29:55.875Z,13.10
2022-08-24T01:32:27.971Z,12.38
2022-08-24T01:34:56.226Z,12.38
2022-08-24T01:37:23.154Z,13.13
2022-08-24T01:39:52.006Z,11.82
2022-08-24T01:42:18.689Z,13.00
2022-08-24T01:44:46.071Z,11.93
2022-08-24T01:47:14.171Z,13.70
2022-08-24T01:49:43.966Z,14.02
2022-08-24T01:52:14.881Z,14.40
2022-08-24T01:54:43.461Z,12.25
2022-08-24T01:57:10.920Z,12.68
2022-08-24T01:59:42.763Z,13.38
2022-08-24T02:02:19.739Z,13.55
2022-08-24T02:04:46.260Z,13.82
2022-08-24T02:07:13.439Z,15.48
2022-08-24T02:09:41.229Z,15.13
2022-08-24T02:12:08.901Z,11.82
2022-08-24T02:14:35.907Z,12.95
2022-08-24T02:17:04.530Z,9.88
2022-08-24T02:19:31.632Z,12.07
2022-08-24T02:21:58.192Z,12.20
2022-08-24T02:24:24.678Z,13.23
2022-08-24T02:26:51.244Z,15.40
2022-08-24T02:29:17.745Z,13.45
2022-08-24T02:31:44.871Z,15.98
2022-08-24T02:34:11.413Z,14.25
2022-08-24T02:36:38.989Z,12.35
2022-08-24T02:39:07.445Z,16.75
2022-08-24T02:41:34.546Z,14.75
2022-08-24T02:44:01.099Z,14.50
2022-08-24T02:46:29.791Z,16.35
2022-08-24T02:49:10.688Z,14.40
2022-08-24T02:51:44.773Z,12.75
2022-08-24T02:54:13.355Z,13.05
2022-08-24T02:56:39.854Z,15.93
2022-08-24T02:59:06.670Z,20.15
2022-08-24T03:01:33.343Z,17.15
2022-08-24T03:03:59.956Z,15.38
2022-08-24T03:06:26.587Z,15.10
2022-08-24T03:08:56.296Z,19.75
2022-08-24T03:11:27.600Z,14.30
2022-08-24T03:13:55.484Z,11.00
2022-08-24T03:16:22.142Z,13.95
2022-08-24T03:18:48.855Z,14.20
2022-08-24T03:21:16.300Z,12.52
2022-08-24T03:23:43.000Z,17.02
2022-08-24T03:26:09.976Z,16.83
2022-08-24T03:28:36.635Z,16.77
2022-08-24T03:31:03.400Z,13.45
2022-08-24T03:33:30.262Z,16.10
2022-08-24T03:35:56.793Z,13.65
2022-08-24T03:38:23.512Z,16.83
2022-08-24T03:40:50.354Z,17.25
2022-08-24T03:43:35.740Z,12.57
2022-08-24T03:46:05.120Z,13.05
2022-08-24T03:48:31.706Z,12.57
2022-08-24T03:50:58.335Z,14.57
2022-08-24T03:53:25.264Z,13.80
2022-08-24T03:55:52.288Z,19.08
2022-08-24T03:58:18.845Z,15.93
2022-08-24T04:00:45.589Z,13.20
2022-08-24T04:03:12.749Z,16.17
2022-08-24T04:05:40.348Z,16.30
2022-08-24T04:08:06.862Z,15.65
2022-08-24T04:10:33.999Z,14.65
2022-08-24T04:13:01.596Z,16.90
2022-08-24T04:15:29.956Z,16.90
2022-08-24T04:17:56.458Z,14.48
2022-08-24T04:20:24.092Z,14.80
2022-08-24T04:22:51.449Z,15.15
2022-08-24T04:25:25.837Z,13.48
2022-08-24T04:27:52.373Z,13.57
2022-08-24T04:30:21.789Z,15.80
2022-08-24T04:32:48.565Z,13.63
2022-08-24T04:35:15.064Z,13.20
2022-08-24T04:37:41.658Z,17.67
2022-08-24T04:40:09.071Z,15.48
2022-08-24T04:42:37.340Z,16.05
2022-08-24T04:45:04.454Z,14.52
2022-08-24T04:47:30.968Z,22.83
2022-08-24T04:49:57.458Z,19.73
2022-08-24T04:52:24.229Z,16.23
2022-08-24T04:54:50.700Z,17.55
2022-08-24T04:57:18.366Z,15.43
2022-08-24T04:59:45.330Z,16.10
2022-08-24T05:02:11.894Z,16.05
2022-08-24T05:04:38.532Z,20.83
2022-08-24T05:07:05.518Z,16.42
2022-08-24T05:09:32.049Z,13.02
2022-08-24T05:11:58.546Z,20.85
2022-08-24T05:14:28.646Z,17.38
2022-08-24T05:16:56.049Z,14.82
2022-08-24T05:19:23.963Z,16.90
2022-08-24T05:21:50.698Z,18.98
2022-08-24T05:24:18.295Z,23.92
2022-08-24T05:26:45.567Z,16.92
2022-08-24T05:29:12.226Z,14.98
2022-08-24T05:31:38.790Z,16.35
2022-08-24T05:34:05.580Z,22.40
2022-08-24T05:36:35.014Z,17.38
2022-08-24T05:39:06.974Z,17.60
2022-08-24T05:41:37.821Z,16.70
2022-08-24T05:44:06.654Z,16.92
2022-08-24T05:46:33.485Z,15.63
2022-08-24T05:49:00.499Z,19.10
2022-08-24T05:51:28.046Z,19.50
2022-08-24T05:53:54.701Z,20.40
2022-08-24T05:56:21.275Z,16.33
2022-08-24T05:58:48.606Z,16.15
2022-08-24T06:01:21.113Z,13.00
2022-08-24T06:03:49.215Z,17.42
2022-08-24T06:06:16.735Z,16.52
2022-08-24T06:08:46.277Z,15.80
2022-08-24T06:11:20.837Z,19.60
2022-08-24T06:13:47.803Z,25.17
2022-08-24T06:16:22.106Z,24.40
2022-08-24T06:18:50.706Z,19.67
2022-08-24T06:21:20.887Z,16.88
2022-08-24T06:23:48.559Z,17.08
2022-08-24T06:26:34.189Z,16.80
2022-08-24T06:31:27.672Z,18.58
2022-08-24T06:33:55.108Z,17.48
2022-08-24T06:36:22.717Z,16.90
2022-08-24T06:38:49.913Z,20.52
2022-08-24T06:41:17.233Z,22.25
2022-08-24T06:43:44.163Z,21.98
2022-08-24T06:46:11.034Z,24.90
2022-08-24T06:48:37.609Z,20.80
2022-08-24T06:51:09.877Z,25.52
2022-08-24T06:53:36.557Z,19.70
2022-08-24T06:56:04.542Z,22.83
2022-08-24T06:58:32.394Z,23.35
2022-08-24T07:01:07.396Z,23.17
2022-08-24T07:03:33.891Z,28.88
2022-08-24T07:06:02.664Z,23.73
2022-08-24T07:08:29.645Z,18.90
2022-08-24T07:10:56.123Z,21.90
2022-08-24T07:13:22.664Z,22.02
2022-08-24T07:15:51.785Z,18.52
2022-08-24T07:18:19.878Z,21.95
2022-08-24T07:20:47.607Z,23.75
2022-08-24T07:23:14.914Z,23.42
2022-08-24T07:25:44.886Z,23.00
2022-08-24T07:28:15.273Z,24.65
2022-08-24T07:30:42.688Z,24.52
2022-08-24T07:33:09.578Z,24.52
2022-08-24T07:35:37.527Z,17.35
2022-08-24T07:38:06.082Z,22.48
2022-08-24T07:40:55.886Z,22.30
2022-08-24T07:43:21.298Z,16.98
2022-08-24T07:45:49.568Z,19.30
2022-08-24T07:48:16.135Z,18.50
2022-08-24T07:50:42.780Z,20.70
2022-08-24T07:53:13.871Z,15.90
2022-08-24T07:55:52.043Z,19.75
2022-08-24T07:58:18.855Z,15.73
2022-08-24T08:00:49.434Z,17.05
2022-08-24T08:03:16.075Z,15.70
2022-08-24T08:05:43.106Z,16.83
2022-08-24T08:08:09.628Z,15.20
2022-08-24T08:10:36.265Z,21.75
2022-08-24T08:13:06.392Z,14.35
2022-08-24T08:15:33.151Z,19.85
2022-08-24T08:17:59.692Z,16.50
2022-08-24T08:20:26.174Z,18.45
2022-08-24T08:23:11.553Z,18.13
2022-08-24T08:25:38.381Z,23.13
2022-08-24T08:28:18.509Z,20.88
2022-08-24T08:30:53.737Z,18.45
2022-08-24T08:33:20.805Z,21.63
2022-08-24T08:35:49.130Z,16.25
2022-08-24T08:38:15.736Z,14.13
2022-08-24T08:40:45.301Z,14.27
2022-08-24T08:43:43.042Z,14.60
2022-08-24T08:46:15.499Z,16.52
2022-08-24T08:49:15.311Z,12.30
2022-08-24T08:51:58.590Z,15.77
2022-08-24T08:54:44.361Z,13.77
2022-08-24T08:57:34.008Z,15.07
2022-08-24T09:00:22.330Z,14.75
2022-08-24T09:03:17.436Z,13.50
2022-08-24T09:06:05.985Z,11.65
2022-08-24T09:08:57.306Z,12.23
2022-08-24T09:11:50.449Z,13.02
2022-08-24T09:14:45.860Z,12.55
2022-08-24T09:17:21.040Z,14.27
2022-08-24T09:20:09.073Z,14.13
2022-08-24T09:22:43.410Z,13.65
2022-08-24T09:25:38.841Z,11.77
2022-08-24T09:28:34.417Z,10.48
2022-08-24T09:31:38.605Z,7.63
2022-08-24T09:34:25.008Z,12.45
2022-08-24T09:36:51.455Z,10.85
2022-08-24T09:39:55.456Z,15.93
2022-08-24T09:42:47.108Z,13.27
2022-08-24T09:45:22.592Z,9.48
2022-08-24T09:48:41.954Z,12.15
2022-08-24T09:51:28.640Z,8.50
2022-08-24T09:54:04.165Z,12.38
2022-08-24T09:57:11.686Z,8.60
2022-08-24T09:59:47.703Z,7.80
2022-08-24T10:02:32.661Z,6.78
2022-08-24T10:04:59.149Z,11.93
2022-08-24T10:07:49.000Z,8.40
2022-08-24T10:10:34.664Z,10.25
2022-08-24T10:13:10.290Z,15.77
2022-08-24T10:16:13.843Z,10.35
2022-08-24T10:18:54.767Z,7.10
2022-08-24T10:21:36.894Z,5.97
2022-08-24T10:24:21.689Z,6.18
2022-08-24T10:27:13.687Z,10.60
2022-08-24T10:30:04.378Z,6.53
2022-08-24T10:32:52.075Z,5.85
2022-08-24T10:35:56.574Z,5.28
2022-08-24T10:38:50.554Z,6.38
2022-08-24T10:41:54.686Z,7.00
2022-08-24T10:44:46.121Z,4.60
2022-08-24T10:47:21.370Z,6.22
2022-08-24T10:50:12.757Z,5.82
2022-08-24T10:53:05.282Z,8.43
2022-08-24T10:55:34.591Z,4.95
2022-08-24T10:58:13.227Z,5.78
2022-08-24T11:00:40.285Z,8.57
2022-08-24T11:03:21.438Z,7.57
2022-08-24T11:05:56.996Z,6.72
2022-08-24T11:08:33.453Z,8.52
2022-08-24T11:11:25.122Z,9.32
2022-08-24T11:14:06.428Z,10.18
2022-08-24T11:16:44.828Z,8.25
2022-08-24T11:19:14.405Z,5.72
2022-08-24T11:21:50.868Z,7.57
2022-08-24T11:24:24.335Z,7.13
2022-08-24T11:26:56.251Z,7.40
2022-08-24T11:29:30.623Z,9.35
2022-08-24T11:31:58.837Z,8.05
2022-08-24T11:34:37.748Z,8.07
2022-08-24T11:37:05.156Z,9.60
2022-08-24T11:39:37.135Z,6.47
2022-08-24T11:42:03.595Z,7.30
2022-08-24T11:44:41.774Z,7.15
2022-08-24T11:47:24.082Z,10.80
2022-08-24T11:50:21.784Z,5.45
2022-08-24T11:53:03.598Z,8.98
2022-08-24T11:55:57.492Z,9.68
2022-08-24T11:58:44.946Z,10.80
2022-08-24T12:01:23.333Z,9.85
2022-08-24T12:04:00.168Z,12.68
2022-08-24T12:06:45.889Z,7.05
2022-08-24T12:09:22.122Z,6.45
2022-08-24T12:12:00.278Z,5.85
2022-08-24T12:14:44.678Z,6.97
2022-08-24T12:17:18.792Z,8.30
2022-08-24T12:20:21.179Z,5.60
2022-08-24T12:22:49.429Z,5.15
2022-08-24T12:25:36.056Z,8.77
2022-08-24T12:28:04.800Z,6.78
2022-08-24T12:30:31.714Z,10.15
2022-08-24T12:33:06.838Z,6.75
2022-08-24T12:35:54.045Z,11.27
2022-08-24T12:38:26.974Z,7.13
2022-08-24T12:40:58.595Z,6.72
2022-08-24T12:43:48.896Z,8.50
2022-08-24T12:46:20.627Z,7.55
2022-08-24T12:48:57.186Z,7.03
2022-08-24T12:52:14.785Z,10.52
2022-08-24T12:55:14.319Z,4.53
2022-08-24T12:57:54.559Z,4.72
2022-08-24T13:00:44.090Z,7.63
2022-08-24T13:03:38.441Z,7.05
2022-08-24T13:06:31.746Z,9.25
2022-08-24T13:09:30.136Z,9.77
2022-08-24T13:12:00.555Z,9.93
2022-08-24T13:14:29.747Z,6.07
2022-08-24T13:16:58.949Z,10.00
2022-08-24T13:19:28.501Z,8.15
2022-08-24T13:22:12.761Z,10.13
2022-08-24T13:24:39.616Z,8.63
2022-08-24T13:27:12.211Z,9.65
2022-08-24T13:29:42.820Z,6.90
2022-08-24T13:32:20.931Z,8.50
2022-08-24T13:34:49.293Z,6.00
2022-08-24T13:37:24.619Z,7.72
2022-08-24T13:40:19.465Z,8.27
2022-08-24T13:43:21.941Z,7.28
2022-08-24T13:46:13.254Z,9.30
2022-08-24T13:48:55.896Z,7.35
2022-08-24T13:51:25.412Z,6.05
2022-08-24T13:54:05.727Z,7.03
2022-08-24T13:56:35.036Z,3.92
2022-08-24T13:59:35.215Z,6.47
2022-08-24T14:02:16.080Z,11.00
2022-08-24T14:04:49.149Z,8.82
2022-08-24T14:07:24.318Z,12.05
2022-08-24T14:09:50.721Z,8.07
2022-08-24T14:12:38.928Z,6.75
2022-08-24T14:16:11.636Z,7.90
2022-08-24T14:18:56.143Z,7.10
2022-08-24T14:21:35.487Z,9.88
2022-08-24T14:24:11.705Z,7.07
2022-08-24T14:26:38.641Z,11.43
2022-08-24T14:29:20.360Z,9.52
2022-08-24T14:32:00.237Z,10.05
2022-08-24T14:35:19.503Z,8.48
2022-08-24T14:38:01.609Z,6.80
2022-08-24T14:40:42.780Z,5.72
2022-08-24T14:43:15.367Z,7.22
2022-08-24T14:46:29.134Z,10.07
2022-08-24T14:49:16.663Z,9.13
2022-08-24T14:52:10.919Z,10.45
2022-08-24T14:55:03.554Z,5.20
2022-08-24T14:57:49.962Z,6.82
2022-08-24T15:00:24.448Z,9.00
2022-08-24T15:05:32.711Z,6.10
2022-08-24T15:08:18.169Z,6.30
2022-08-24T15:10:58.972Z,7.63
2022-08-24T15:13:28.132Z,6.40
2022-08-24T15:16:05.000Z,6.03
2022-08-24T15:18:50.746Z,7.53
2022-08-24T15:21:26.413Z,8.52
2022-08-24T15:24:01.353Z,9.65
2022-08-24T15:27:03.673Z,9.15
2022-08-24T15:29:32.891Z,8.98
2022-08-24T15:32:12.172Z,8.77
2022-08-24T15:34:52.982Z,9.00
2022-08-24T15:37:47.802Z,7.70
2022-08-24T15:40:29.628Z,7.32
2022-08-24T15:43:03.426Z,8.27
2022-08-24T15:45:31.684Z,6.75
2022-08-24T15:48:01.099Z,6.22
2022-08-24T15:50:32.602Z,6.50
2022-08-24T15:53:08.455Z,9.32
2022-08-24T15:55:38.756Z,4.60
2022-08-24T15:58:18.456Z,7.13
2022-08-24T16:01:11.377Z,8.05
2022-08-24T16:03:49.859Z,8.32
2022-08-24T16:06:18.276Z,7.80
2022-08-24T16:08:59.077Z,7.97
2022-08-24T16:11:34.256Z,10.23
2022-08-24T16:14:03.122Z,10.15
2022-08-24T16:16:35.158Z,12.32
2022-08-24T16:19:08.388Z,8.25
2022-08-24T16:21:51.245Z,11.27
2022-08-24T16:24:21.088Z,8.40
2022-08-24T16:26:47.626Z,10.52
2022-08-24T16:29:38.819Z,7.20
2022-08-24T16:32:30.094Z,7.55
2022-08-24T16:35:08.519Z,8.65
2022-08-24T16:37:35.441Z,10.68
2022-08-24T16:40:02.046Z,9.63
2022-08-24T16:42:30.408Z,7.25
2022-08-24T16:44:58.877Z,8.00
2022-08-24T16:47:26.753Z,6.85
2022-08-24T16:49:53.316Z,7.68
2022-08-24T16:52:20.836Z,10.25
2022-08-24T16:54:48.156Z,7.78
2022-08-24T16:57:19.027Z,6.80
2022-08-24T16:59:48.219Z,8.07
2022-08-24T17:02:17.017Z,9.93
2022-08-24T17:04:43.793Z,10.35
2022-08-24T17:07:13.565Z,10.13
2022-08-24T17:09:42.734Z,6.22
2022-08-24T17:12:09.582Z,7.22
2022-08-24T17:14:38.576Z,7.70
2022-08-24T17:17:11.708Z,8.40
2022-08-24T17:19:39.307Z,6.97
2022-08-24T17:22:15.602Z,8.95
2022-08-24T17:24:43.291Z,7.88
2022-08-24T17:27:10.016Z,8.30
2022-08-24T17:29:36.587Z,8.40
2022-08-24T17:32:03.486Z,9.02
2022-08-24T17:34:30.126Z,6.93
2022-08-24T17:36:57.321Z,12.30
2022-08-24T17:39:24.484Z,8.63
2022-08-24T17:41:52.665Z,5.85
2022-08-24T17:44:25.799Z,9.98
2022-08-24T17:46:57.502Z,8.63
2022-08-24T17:49:24.366Z,7.35
2022-08-24T17:51:50.941Z,9.85
2022-08-24T17:54:18.188Z,6.28
2022-08-24T17:56:48.629Z,5.30
2022-08-24T17:59:25.566Z,10.35
2022-08-24T18:01:55.622Z,7.85
2022-08-24T18:04:25.889Z,15.50
2022-08-24T18:06:52.620Z,10.00
2022-08-24T18:09:28.970Z,6.45
2022-08-24T18:11:56.552Z,11.65
2022-08-24T18:14:26.744Z,10.20
2022-08-24T18:16:57.138Z,7.75
2022-08-24T18:19:25.179Z,9.80
2022-08-24T18:21:52.365Z,9.32
2022-08-24T18:24:19.692Z,8.52
2022-08-24T18:26:48.075Z,8.88
2022-08-24T18:29:21.522Z,6.90
2022-08-24T18:31:48.689Z,7.45
2022-08-24T18:34:21.259Z,8.77
2022-08-24T18:36:48.419Z,7.70
2022-08-24T18:39:15.423Z,6.70
2022-08-24T18:41:44.287Z,8.43
2022-08-24T18:44:21.518Z,10.27
2022-08-24T18:46:48.930Z,8.48
2022-08-24T18:49:17.326Z,13.25
2022-08-24T18:51:45.018Z,10.88
2022-08-24T18:54:19.087Z,9.32
2022-08-24T18:56:45.710Z,7.37
2022-08-24T18:59:14.577Z,8.80
2022-08-24T19:02:02.029Z,10.60
2022-08-24T19:04:33.312Z,6.13
2022-08-24T19:07:00.738Z,9.05
2022-08-24T19:09:32.011Z,12.43
2022-08-24T19:12:00.753Z,10.80
2022-08-24T19:14:27.412Z,11.13
2022-08-24T19:16:54.066Z,9.85
2022-08-24T19:19:22.240Z,8.23
2022-08-24T19:21:49.411Z,9.52
2022-08-24T19:24:18.677Z,8.48
2022-08-24T19:26:45.173Z,11.25
2022-08-24T19:29:12.267Z,7.85
2022-08-24T19:31:38.939Z,12.45
2022-08-24T19:34:06.092Z,9.77
2022-08-24T19:36:33.114Z,9.75
2022-08-24T19:39:00.211Z,12.07
2022-08-24T19:41:36.761Z,11.18
2022-08-24T19:44:27.158Z,10.77
2022-08-24T19:46:54.740Z,9.45
2022-08-24T19:49:21.689Z,11.55
2022-08-24T19:51:48.319Z,8.77
2022-08-24T19:54:14.832Z,13.57
2022-08-24T19:56:41.528Z,10.13
2022-08-24T19:59:20.907Z,10.13
2022-08-24T20:01:47.545Z,9.65
2022-08-24T20:04:14.175Z,9.32
2022-08-24T20:06:40.945Z,11.15
2022-08-24T20:09:19.570Z,10.82
2022-08-24T20:11:49.734Z,10.63
2022-08-24T20:14:16.282Z,11.05
2022-08-24T20:16:42.897Z,11.63
2022-08-24T20:19:11.286Z,9.95
2022-08-24T20:21:38.569Z,9.25
2022-08-24T20:24:06.396Z,10.18
2022-08-24T20:26:40.995Z,7.90
2022-08-24T20:29:08.362Z,9.90
2022-08-24T20:31:35.198Z,9.77
2022-08-24T20:34:02.422Z,15.48
2022-08-24T20:36:34.653Z,11.55
2022-08-24T20:39:02.899Z,12.07
2022-08-24T20:41:31.061Z,12.85
2022-08-24T20:43:57.744Z,12.50
2022-08-24T20:46:26.817Z,9.70
2022-08-24T20:48:55.573Z,10.35
2022-08-24T20:51:23.800Z,11.13
2022-08-24T20:53:50.579Z,13.82
2022-08-24T20:56:32.694Z,11.40
2022-08-24T20:59:02.525Z,8.77
2022-08-24T21:01:30.408Z,10.77
2022-08-24T21:04:00.243Z,10.40
2022-08-24T21:06:30.045Z,10.98
2022-08-24T21:08:57.063Z,15.77
2022-08-24T21:11:23.554Z,10.77
2022-08-24T21:13:50.056Z,11.32
2022-08-24T21:16:16.880Z,13.98
2022-08-24T21:18:43.693Z,10.27
2022-08-24T21:21:10.509Z,9.85
2022-08-24T21:23:37.028Z,10.00
2022-08-24T21:26:07.563Z,11.45
2022-08-24T21:28:35.693Z,9.65
2022-08-24T21:31:06.056Z,10.75
2022-08-24T21:33:52.161Z,10.20
2022-08-24T21:36:20.563Z,12.75
2022-08-24T21:38:47.409Z,14.73
2022-08-24T21:41:13.914Z,9.73
2022-08-24T21:43:40.367Z,11.80
2022-08-24T21:46:07.561Z,10.73
2022-08-24T21:48:34.078Z,10.48
2022-08-24T21:51:00.549Z,8.90
2022-08-24T21:53:28.691Z,10.05
2022-08-24T21:55:56.016Z,11.57
2022-08-24T21:58:24.079Z,8.32
2022-08-24T22:00:51.796Z,8.43
2022-08-24T22:03:19.444Z,8.68
2022-08-24T22:05:46.000Z,8.52
2022-08-24T22:08:12.778Z,12.25
2022-08-24T22:10:39.400Z,8.43
2022-08-24T22:13:06.998Z,8.23
2022-08-24T22:15:33.867Z,8.88
2022-08-24T22:18:01.261Z,6.20
2022-08-24T22:20:27.749Z,8.63
2022-08-24T22:22:54.235Z,10.07
2022-08-24T22:25:21.028Z,10.70
2022-08-24T22:27:47.831Z,9.20
2022-08-24T22:30:17.050Z,9.93
2022-08-24T22:32:47.096Z,9.30
2022-08-24T22:35:14.330Z,8.73
2022-08-24T22:37:41.876Z,11.95
2022-08-24T22:40:12.349Z,8.05
2022-08-24T22:42:39.537Z,9.00
2022-08-24T22:45:07.024Z,14.82
2022-08-24T22:47:33.756Z,11.88
2022-08-24T22:50:00.352Z,8.30
2022-08-24T22:52:26.929Z,9.63
2022-08-24T22:54:56.430Z,15.50
2022-08-24T22:57:23.714Z,9.48
2022-08-24T22:59:50.280Z,13.85
2022-08-24T23:02:19.582Z,8.48
2022-08-24T23:04:49.832Z,12.95
2022-08-24T23:07:17.946Z,10.48
2022-08-24T23:09:45.608Z,9.43
2022-08-24T23:12:16.029Z,9.82
2022-08-24T23:14:43.455Z,12.30
2022-08-24T23:17:10.566Z,14.15
2022-08-24T23:19:56.107Z,14.05
2022-08-24T23:24:49.211Z,7.45
2022-08-24T23:27:17.009Z,10.98
2022-08-24T23:29:44.626Z,11.60
2022-08-24T23:32:11.585Z,11.00
2022-08-24T23:34:38.226Z,8.40
2022-08-24T23:37:05.386Z,14.00
2022-08-24T23:39:31.931Z,11.32
2022-08-24T23:41:58.841Z,9.38
2022-08-24T23:44:28.455Z,8.05
2022-08-24T23:46:56.859Z,10.23
2022-08-24T23:49:24.510Z,13.30
2022-08-24T23:51:52.406Z,14.05
2022-08-24T23:54:19.722Z,11.05
2022-08-24T23:56:48.211Z,9.57
2022-08-24T23:59:19.173Z,12.10
